sensor_id;sensor_type;location;lat;lon;timestamp;temperature;humidity
71117;SHT31;58775;46.992;9.518;2023-12-14T00:00:52;4.76;99.99
71117;SHT31;58775;46.992;9.518;2023-12-14T00:02:53;4.76;99.99
71117;SHT31;58775;46.992;9.518;2023-12-14T00:04:54;4.78;99.99
71117;SHT31;58775;46.992;9.518;2023-12-14T00:06:55;4.85;99.99
71117;SHT31;58775;46.992;9.518;2023-12-14T00:08:56;4.86;99.99
71117;SHT31;58775;46.992;9.518;2023-12-14T00:10:56;4.92;99.99
71117;SHT31;58775;46.992;9.518;2023-12-14T00:12:57;4.91;99.64
71117;SHT31;58775;46.992;9.518;2023-12-14T00:14:58;5.00;99.99
71117;SHT31;58775;46.992;9.518;2023-12-14T00:16:58;4.99;99.06
71117;SHT31;58775;46.992;9.518;2023-12-14T00:18:59;4.93;99.99
71117;SHT31;58775;46.992;9.518;2023-12-14T00:21:00;4.89;99.99
71117;SHT31;58775;46.992;9.518;2023-12-14T00:23:01;4.86;99.99
71117;SHT31;58775;46.992;9.518;2023-12-14T00:25:02;4.88;99.99
71117;SHT31;58775;46.992;9.518;2023-12-14T00:27:03;4.85;99.99
71117;SHT31;58775;46.992;9.518;2023-12-14T00:29:03;4.83;99.99
71117;SHT31;58775;46.992;9.518;2023-12-14T00:31:04;4.86;99.99
71117;SHT31;58775;46.992;9.518;2023-12-14T00:33:06;4.96;99.99
71117;SHT31;58775;46.992;9.518;2023-12-14T00:35:07;4.97;99.99
71117;SHT31;58775;46.992;9.518;2023-12-14T00:37:08;4.97;99.99
71117;SHT31;58775;46.992;9.518;2023-12-14T00:39:09;4.99;99.99
71117;SHT31;58775;46.992;9.518;2023-12-14T00:41:09;5.05;99.99
71117;SHT31;58775;46.992;9.518;2023-12-14T00:43:10;5.03;99.88
71117;SHT31;58775;46.992;9.518;2023-12-14T00:45:11;5.02;99.92
71117;SHT31;58775;46.992;9.518;2023-12-14T00:47:12;4.97;99.99
71117;SHT31;58775;46.992;9.518;2023-12-14T00:49:13;4.92;99.91
71117;SHT31;58775;46.992;9.518;2023-12-14T00:51:13;4.97;99.99
71117;SHT31;58775;46.992;9.518;2023-12-14T00:53:14;4.99;99.99
71117;SHT31;58775;46.992;9.518;2023-12-14T00:55:15;5.08;99.99
71117;SHT31;58775;46.992;9.518;2023-12-14T00:57:16;5.09;99.99
71117;SHT31;58775;46.992;9.518;2023-12-14T00:59:16;5.12;99.99
71117;SHT31;58775;46.992;9.518;2023-12-14T01:01:17;5.11;99.99
71117;SHT31;58775;46.992;9.518;2023-12-14T01:03:18;5.15;99.99
71117;SHT31;58775;46.992;9.518;2023-12-14T01:05:18;5.13;99.92
71117;SHT31;58775;46.992;9.518;2023-12-14T01:07:19;5.15;99.99
71117;SHT31;58775;46.992;9.518;2023-12-14T01:09:20;5.15;99.99
71117;SHT31;58775;46.992;9.518;2023-12-14T01:11:21;5.16;99.87
71117;SHT31;58775;46.992;9.518;2023-12-14T01:13:22;5.19;99.99
71117;SHT31;58775;46.992;9.518;2023-12-14T01:15:22;5.18;99.97
71117;SHT31;58775;46.992;9.518;2023-12-14T01:17:23;5.18;99.95
71117;SHT31;58775;46.992;9.518;2023-12-14T01:19:24;5.15;99.95
71117;SHT31;58775;46.992;9.518;2023-12-14T01:21:25;5.03;99.83
71117;SHT31;58775;46.992;9.518;2023-12-14T01:23:26;4.99;99.99
71117;SHT31;58775;46.992;9.518;2023-12-14T01:25:27;4.96;99.99
71117;SHT31;58775;46.992;9.518;2023-12-14T01:27:27;5.03;99.99
71117;SHT31;58775;46.992;9.518;2023-12-14T01:29:28;5.08;99.99
71117;SHT31;58775;46.992;9.518;2023-12-14T01:31:29;5.06;99.99
71117;SHT31;58775;46.992;9.518;2023-12-14T01:33:30;5.12;99.99
71117;SHT31;58775;46.992;9.518;2023-12-14T01:35:30;5.06;99.99
71117;SHT31;58775;46.992;9.518;2023-12-14T01:37:31;5.13;99.99
71117;SHT31;58775;46.992;9.518;2023-12-14T01:39:32;5.11;99.89
71117;SHT31;58775;46.992;9.518;2023-12-14T01:41:33;5.11;99.99
71117;SHT31;58775;46.992;9.518;2023-12-14T01:43:34;5.15;99.99
71117;SHT31;58775;46.992;9.518;2023-12-14T01:45:35;5.12;99.99
71117;SHT31;58775;46.992;9.518;2023-12-14T01:47:35;5.15;99.99
71117;SHT31;58775;46.992;9.518;2023-12-14T01:49:36;5.19;99.99
71117;SHT31;58775;46.992;9.518;2023-12-14T01:51:37;5.18;99.87
71117;SHT31;58775;46.992;9.518;2023-12-14T01:53:38;5.22;99.95
71117;SHT31;58775;46.992;9.518;2023-12-14T01:55:38;5.15;99.30
71117;SHT31;58775;46.992;9.518;2023-12-14T01:57:39;5.11;99.99
71117;SHT31;58775;46.992;9.518;2023-12-14T01:59:40;5.15;99.99
71117;SHT31;58775;46.992;9.518;2023-12-14T02:01:52;5.11;99.89
71117;SHT31;58775;46.992;9.518;2023-12-14T02:03:54;5.11;99.99
71117;SHT31;58775;46.992;9.518;2023-12-14T02:05:55;5.11;99.99
71117;SHT31;58775;46.992;9.518;2023-12-14T02:07:58;5.12;99.99
71117;SHT31;58775;46.992;9.518;2023-12-14T02:09:59;5.03;99.72
71117;SHT31;58775;46.992;9.518;2023-12-14T02:11:59;4.95;99.99
71117;SHT31;58775;46.992;9.518;2023-12-14T02:14:04;4.96;99.99
71117;SHT31;58775;46.992;9.518;2023-12-14T02:16:06;5.02;99.99
71117;SHT31;58775;46.992;9.518;2023-12-14T02:18:06;5.06;99.99
71117;SHT31;58775;46.992;9.518;2023-12-14T02:20:07;5.08;99.99
71117;SHT31;58775;46.992;9.518;2023-12-14T02:22:08;5.03;99.89
71117;SHT31;58775;46.992;9.518;2023-12-14T02:24:09;5.02;99.78
71117;SHT31;58775;46.992;9.518;2023-12-14T02:26:09;5.05;99.68
71117;SHT31;58775;46.992;9.518;2023-12-14T02:28:10;4.97;99.53
71117;SHT31;58775;46.992;9.518;2023-12-14T02:30:12;4.92;99.91
71117;SHT31;58775;46.992;9.518;2023-12-14T02:32:13;4.91;99.99
71117;SHT31;58775;46.992;9.518;2023-12-14T02:34:14;4.96;99.99
71117;SHT31;58775;46.992;9.518;2023-12-14T02:36:14;5.03;99.99
71117;SHT31;58775;46.992;9.518;2023-12-14T02:38:15;5.03;99.86
71117;SHT31;58775;46.992;9.518;2023-12-14T02:40:16;5.02;99.67
71117;SHT31;58775;46.992;9.518;2023-12-14T02:42:17;5.06;99.99
71117;SHT31;58775;46.992;9.518;2023-12-14T02:44:18;5.03;99.76
71117;SHT31;58775;46.992;9.518;2023-12-14T02:46:19;5.08;99.99
71117;SHT31;58775;46.992;9.518;2023-12-14T02:48:19;5.00;99.84
71117;SHT31;58775;46.992;9.518;2023-12-14T02:50:20;5.06;99.99
71117;SHT31;58775;46.992;9.518;2023-12-14T02:52:23;5.06;99.99
71117;SHT31;58775;46.992;9.518;2023-12-14T02:54:24;5.03;99.99
71117;SHT31;58775;46.992;9.518;2023-12-14T02:56:25;5.12;99.99
71117;SHT31;58775;46.992;9.518;2023-12-14T02:58:26;5.08;99.68
71117;SHT31;58775;46.992;9.518;2023-12-14T03:00:26;5.09;99.99
71117;SHT31;58775;46.992;9.518;2023-12-14T03:02:27;5.09;99.99
71117;SHT31;58775;46.992;9.518;2023-12-14T03:04:28;5.08;99.99
71117;SHT31;58775;46.992;9.518;2023-12-14T03:06:29;5.11;99.99
71117;SHT31;58775;46.992;9.518;2023-12-14T03:08:30;5.13;99.99
71117;SHT31;58775;46.992;9.518;2023-12-14T03:10:30;5.18;99.76
71117;SHT31;58775;46.992;9.518;2023-12-14T03:12:31;5.03;99.55
71117;SHT31;58775;46.992;9.518;2023-12-14T03:14:33;4.88;99.99
71117;SHT31;58775;46.992;9.518;2023-12-14T03:16:34;4.86;99.99
71117;SHT31;58775;46.992;9.518;2023-12-14T03:18:36;4.91;99.99
71117;SHT31;58775;46.992;9.518;2023-12-14T03:20:36;4.91;99.99
71117;SHT31;58775;46.992;9.518;2023-12-14T03:22:37;4.97;99.99
71117;SHT31;58775;46.992;9.518;2023-12-14T03:24:39;4.97;99.99
71117;SHT31;58775;46.992;9.518;2023-12-14T03:26:39;4.96;99.99
71117;SHT31;58775;46.992;9.518;2023-12-14T03:28:40;4.97;99.99
71117;SHT31;58775;46.992;9.518;2023-12-14T03:30:41;5.00;99.99
71117;SHT31;58775;46.992;9.518;2023-12-14T03:32:42;5.09;99.99
71117;SHT31;58775;46.992;9.518;2023-12-14T03:34:42;5.12;99.99
71117;SHT31;58775;46.992;9.518;2023-12-14T03:36:43;5.16;99.99
71117;SHT31;58775;46.992;9.518;2023-12-14T03:38:44;5.16;99.85
71117;SHT31;58775;46.992;9.518;2023-12-14T03:40:45;5.11;99.65
71117;SHT31;58775;46.992;9.518;2023-12-14T03:42:45;5.11;99.74
71117;SHT31;58775;46.992;9.518;2023-12-14T03:44:46;5.03;99.66
71117;SHT31;58775;46.992;9.518;2023-12-14T03:46:47;5.03;99.99
71117;SHT31;58775;46.992;9.518;2023-12-14T03:48:48;5.00;99.99
71117;SHT31;58775;46.992;9.518;2023-12-14T03:50:49;5.03;99.99
71117;SHT31;58775;46.992;9.518;2023-12-14T03:52:49;4.97;99.99
71117;SHT31;58775;46.992;9.518;2023-12-14T03:54:50;5.00;99.99
71117;SHT31;58775;46.992;9.518;2023-12-14T03:56:51;4.99;99.99
71117;SHT31;58775;46.992;9.518;2023-12-14T03:58:52;4.99;99.99
71117;SHT31;58775;46.992;9.518;2023-12-14T04:00:52;5.08;99.99
71117;SHT31;58775;46.992;9.518;2023-12-14T04:02:53;5.05;99.99
71117;SHT31;58775;46.992;9.518;2023-12-14T04:04:54;4.99;99.99
71117;SHT31;58775;46.992;9.518;2023-12-14T04:06:55;4.95;99.99
71117;SHT31;58775;46.992;9.518;2023-12-14T04:08:56;5.00;99.99
71117;SHT31;58775;46.992;9.518;2023-12-14T04:10:56;5.05;99.99
71117;SHT31;58775;46.992;9.518;2023-12-14T04:12:57;5.05;99.99
71117;SHT31;58775;46.992;9.518;2023-12-14T04:14:58;5.02;99.99
71117;SHT31;58775;46.992;9.518;2023-12-14T04:16:59;5.08;99.99
71117;SHT31;58775;46.992;9.518;2023-12-14T04:18:59;5.03;99.99
71117;SHT31;58775;46.992;9.518;2023-12-14T04:21:00;4.92;99.99
71117;SHT31;58775;46.992;9.518;2023-12-14T04:23:01;5.03;99.99
71117;SHT31;58775;46.992;9.518;2023-12-14T04:25:01;5.03;99.99
71117;SHT31;58775;46.992;9.518;2023-12-14T04:27:02;5.00;99.99
71117;SHT31;58775;46.992;9.518;2023-12-14T04:29:05;5.02;99.99
71117;SHT31;58775;46.992;9.518;2023-12-14T04:31:06;4.97;99.99
71117;SHT31;58775;46.992;9.518;2023-12-14T04:33:07;4.92;99.99
71117;SHT31;58775;46.992;9.518;2023-12-14T04:35:08;4.92;99.99
71117;SHT31;58775;46.992;9.518;2023-12-14T04:37:08;4.99;99.99
71117;SHT31;58775;46.992;9.518;2023-12-14T04:39:09;5.00;99.99
71117;SHT31;58775;46.992;9.518;2023-12-14T04:41:10;5.03;99.99
71117;SHT31;58775;46.992;9.518;2023-12-14T04:43:11;5.13;99.99
71117;SHT31;58775;46.992;9.518;2023-12-14T04:45:13;5.13;99.99
71117;SHT31;58775;46.992;9.518;2023-12-14T04:47:13;5.15;99.99
71117;SHT31;58775;46.992;9.518;2023-12-14T04:49:14;5.05;99.87
71117;SHT31;58775;46.992;9.518;2023-12-14T04:51:15;5.05;99.99
71117;SHT31;58775;46.992;9.518;2023-12-14T04:53:16;5.05;99.99
71117;SHT31;58775;46.992;9.518;2023-12-14T04:55:16;5.06;99.99
71117;SHT31;58775;46.992;9.518;2023-12-14T04:57:17;5.09;99.99
71117;SHT31;58775;46.992;9.518;2023-12-14T04:59:18;5.09;99.99
71117;SHT31;58775;46.992;9.518;2023-12-14T05:01:19;5.13;99.99
71117;SHT31;58775;46.992;9.518;2023-12-14T05:03:20;5.12;99.80
71117;SHT31;58775;46.992;9.518;2023-12-14T05:05:21;5.06;99.99
71117;SHT31;58775;46.992;9.518;2023-12-14T05:07:21;5.08;99.99
71117;SHT31;58775;46.992;9.518;2023-12-14T05:09:24;5.05;99.99
71117;SHT31;58775;46.992;9.518;2023-12-14T05:11:25;5.06;99.99
71117;SHT31;58775;46.992;9.518;2023-12-14T05:13:26;5.03;99.99
71117;SHT31;58775;46.992;9.518;2023-12-14T05:15:26;4.97;99.99
71117;SHT31;58775;46.992;9.518;2023-12-14T05:17:27;5.09;99.99
71117;SHT31;58775;46.992;9.518;2023-12-14T05:19:28;5.02;99.87
71117;SHT31;58775;46.992;9.518;2023-12-14T05:21:29;4.91;99.99
71117;SHT31;58775;46.992;9.518;2023-12-14T05:23:29;5.03;99.99
71117;SHT31;58775;46.992;9.518;2023-12-14T05:25:30;5.06;99.99
71117;SHT31;58775;46.992;9.518;2023-12-14T05:27:31;5.05;99.99
71117;SHT31;58775;46.992;9.518;2023-12-14T05:29:32;5.09;99.99
71117;SHT31;58775;46.992;9.518;2023-12-14T05:31:33;5.02;99.80
71117;SHT31;58775;46.992;9.518;2023-12-14T05:33:38;5.08;99.99
71117;SHT31;58775;46.992;9.518;2023-12-14T05:35:38;5.11;99.99
71117;SHT31;58775;46.992;9.518;2023-12-14T05:37:39;5.13;99.55
71117;SHT31;58775;46.992;9.518;2023-12-14T05:39:43;5.09;99.56
71117;SHT31;58775;46.992;9.518;2023-12-14T05:41:45;5.03;99.54
71117;SHT31;58775;46.992;9.518;2023-12-14T05:43:46;5.08;99.98
71117;SHT31;58775;46.992;9.518;2023-12-14T05:45:47;5.05;99.99
71117;SHT31;58775;46.992;9.518;2023-12-14T05:47:48;4.99;99.66
71117;SHT31;58775;46.992;9.518;2023-12-14T05:49:49;4.99;99.99
71117;SHT31;58775;46.992;9.518;2023-12-14T05:51:50;5.02;99.95
71117;SHT31;58775;46.992;9.518;2023-12-14T05:53:51;5.00;99.47
71117;SHT31;58775;46.992;9.518;2023-12-14T05:55:51;4.99;99.93
71117;SHT31;58775;46.992;9.518;2023-12-14T05:57:52;4.99;99.99
71117;SHT31;58775;46.992;9.518;2023-12-14T05:59:54;5.00;99.82
71117;SHT31;58775;46.992;9.518;2023-12-14T06:01:58;5.02;99.77
71117;SHT31;58775;46.992;9.518;2023-12-14T06:03:59;5.00;99.60
71117;SHT31;58775;46.992;9.518;2023-12-14T06:06:00;5.00;99.53
71117;SHT31;58775;46.992;9.518;2023-12-14T06:08:01;5.00;99.75
71117;SHT31;58775;46.992;9.518;2023-12-14T06:10:01;5.02;99.71
71117;SHT31;58775;46.992;9.518;2023-12-14T06:12:03;5.00;99.00
71117;SHT31;58775;46.992;9.518;2023-12-14T06:14:04;4.97;99.66
71117;SHT31;58775;46.992;9.518;2023-12-14T06:16:05;4.86;98.83
71117;SHT31;58775;46.992;9.518;2023-12-14T06:18:13;4.85;99.91
71117;SHT31;58775;46.992;9.518;2023-12-14T06:20:14;4.71;99.99
71117;SHT31;58775;46.992;9.518;2023-12-14T06:22:15;4.72;99.99
71117;SHT31;58775;46.992;9.518;2023-12-14T06:24:15;4.72;99.99
71117;SHT31;58775;46.992;9.518;2023-12-14T06:26:16;4.75;99.99
71117;SHT31;58775;46.992;9.518;2023-12-14T06:28:17;4.72;99.93
71117;SHT31;58775;46.992;9.518;2023-12-14T06:30:18;4.69;99.99
71117;SHT31;58775;46.992;9.518;2023-12-14T06:32:19;4.62;99.99
71117;SHT31;58775;46.992;9.518;2023-12-14T06:34:20;4.57;99.99
71117;SHT31;58775;46.992;9.518;2023-12-14T06:36:21;4.48;99.99
71117;SHT31;58775;46.992;9.518;2023-12-14T06:38:22;4.52;99.99
71117;SHT31;58775;46.992;9.518;2023-12-14T06:40:23;4.58;99.99
71117;SHT31;58775;46.992;9.518;2023-12-14T06:42:24;4.64;99.99
71117;SHT31;58775;46.992;9.518;2023-12-14T06:44:28;4.69;99.99
71117;SHT31;58775;46.992;9.518;2023-12-14T06:46:31;4.67;99.99
71117;SHT31;58775;46.992;9.518;2023-12-14T06:48:31;4.71;99.99
71117;SHT31;58775;46.992;9.518;2023-12-14T06:50:32;4.71;99.99
71117;SHT31;58775;46.992;9.518;2023-12-14T06:52:33;4.82;99.99
71117;SHT31;58775;46.992;9.518;2023-12-14T06:54:34;4.82;99.99
71117;SHT31;58775;46.992;9.518;2023-12-14T06:56:36;4.83;99.99
71117;SHT31;58775;46.992;9.518;2023-12-14T06:58:38;4.85;99.99
71117;SHT31;58775;46.992;9.518;2023-12-14T07:00:40;4.88;99.99
71117;SHT31;58775;46.992;9.518;2023-12-14T07:02:41;4.82;99.99
71117;SHT31;58775;46.992;9.518;2023-12-14T07:04:43;4.88;99.99
71117;SHT31;58775;46.992;9.518;2023-12-14T07:06:50;4.91;99.99
71117;SHT31;58775;46.992;9.518;2023-12-14T07:08:51;4.91;99.99
71117;SHT31;58775;46.992;9.518;2023-12-14T07:10:51;4.76;99.99
71117;SHT31;58775;46.992;9.518;2023-12-14T07:12:52;4.76;99.99
71117;SHT31;58775;46.992;9.518;2023-12-14T07:14:53;4.86;99.99
71117;SHT31;58775;46.992;9.518;2023-12-14T07:16:54;4.82;99.99
71117;SHT31;58775;46.992;9.518;2023-12-14T07:18:54;4.88;99.99
71117;SHT31;58775;46.992;9.518;2023-12-14T07:20:55;4.89;99.99
71117;SHT31;58775;46.992;9.518;2023-12-14T07:22:56;4.95;99.99
71117;SHT31;58775;46.992;9.518;2023-12-14T07:24:57;4.88;99.99
71117;SHT31;58775;46.992;9.518;2023-12-14T07:26:58;4.97;99.99
71117;SHT31;58775;46.992;9.518;2023-12-14T07:28:58;5.09;99.99
71117;SHT31;58775;46.992;9.518;2023-12-14T07:30:59;5.02;99.83
71117;SHT31;58775;46.992;9.518;2023-12-14T07:33:00;4.95;99.99
71117;SHT31;58775;46.992;9.518;2023-12-14T07:35:01;4.95;99.99
71117;SHT31;58775;46.992;9.518;2023-12-14T07:37:01;4.99;99.99
71117;SHT31;58775;46.992;9.518;2023-12-14T07:39:02;5.03;99.99
71117;SHT31;58775;46.992;9.518;2023-12-14T07:41:03;5.06;99.99
71117;SHT31;58775;46.992;9.518;2023-12-14T07:43:04;5.18;99.99
71117;SHT31;58775;46.992;9.518;2023-12-14T07:45:06;5.22;99.76
71117;SHT31;58775;46.992;9.518;2023-12-14T07:47:09;5.12;99.59
71117;SHT31;58775;46.992;9.518;2023-12-14T07:49:09;5.19;99.99
71117;SHT31;58775;46.992;9.518;2023-12-14T07:51:10;5.16;99.80
71117;SHT31;58775;46.992;9.518;2023-12-14T07:53:11;5.20;99.76
71117;SHT31;58775;46.992;9.518;2023-12-14T07:55:12;5.22;99.91
71117;SHT31;58775;46.992;9.518;2023-12-14T07:57:14;5.37;98.92
71117;SHT31;58775;46.992;9.518;2023-12-14T07:59:15;5.36;98.01
71117;SHT31;58775;46.992;9.518;2023-12-14T08:01:15;5.34;98.38
71117;SHT31;58775;46.992;9.518;2023-12-14T08:03:16;5.30;98.60
71117;SHT31;58775;46.992;9.518;2023-12-14T08:05:17;5.22;98.86
71117;SHT31;58775;46.992;9.518;2023-12-14T08:07:18;5.23;98.88
71117;SHT31;58775;46.992;9.518;2023-12-14T08:09:19;5.24;98.31
71117;SHT31;58775;46.992;9.518;2023-12-14T08:11:22;5.19;99.55
71117;SHT31;58775;46.992;9.518;2023-12-14T08:13:23;5.06;96.77
71117;SHT31;58775;46.992;9.518;2023-12-14T08:15:24;5.05;96.43
71117;SHT31;58775;46.992;9.518;2023-12-14T08:17:24;4.78;97.54
71117;SHT31;58775;46.992;9.518;2023-12-14T08:19:25;4.72;98.39
71117;SHT31;58775;46.992;9.518;2023-12-14T08:21:26;4.78;98.35
71117;SHT31;58775;46.992;9.518;2023-12-14T08:23:27;4.81;98.40
71117;SHT31;58775;46.992;9.518;2023-12-14T08:25:30;4.92;98.06
71117;SHT31;58775;46.992;9.518;2023-12-14T08:27:31;5.05;97.79
71117;SHT31;58775;46.992;9.518;2023-12-14T08:29:32;4.85;98.19
71117;SHT31;58775;46.992;9.518;2023-12-14T08:31:34;4.92;97.66
71117;SHT31;58775;46.992;9.518;2023-12-14T08:33:34;4.88;98.02
71117;SHT31;58775;46.992;9.518;2023-12-14T08:35:36;4.82;98.75
71117;SHT31;58775;46.992;9.518;2023-12-14T08:37:37;4.83;98.66
71117;SHT31;58775;46.992;9.518;2023-12-14T08:39:37;4.96;98.71
71117;SHT31;58775;46.992;9.518;2023-12-14T08:41:38;5.08;98.06
71117;SHT31;58775;46.992;9.518;2023-12-14T08:43:39;5.08;98.02
71117;SHT31;58775;46.992;9.518;2023-12-14T08:45:40;5.09;98.28
71117;SHT31;58775;46.992;9.518;2023-12-14T08:47:41;5.05;98.50
71117;SHT31;58775;46.992;9.518;2023-12-14T08:49:41;5.06;99.01
71117;SHT31;58775;46.992;9.518;2023-12-14T08:51:42;5.08;98.66
71117;SHT31;58775;46.992;9.518;2023-12-14T08:53:43;5.18;98.73
71117;SHT31;58775;46.992;9.518;2023-12-14T08:55:44;5.29;98.09
71117;SHT31;58775;46.992;9.518;2023-12-14T08:57:45;5.42;98.01
71117;SHT31;58775;46.992;9.518;2023-12-14T08:59:46;5.54;97.78
71117;SHT31;58775;46.992;9.518;2023-12-14T09:01:47;5.61;97.54
71117;SHT31;58775;46.992;9.518;2023-12-14T09:03:47;5.67;97.58
71117;SHT31;58775;46.992;9.518;2023-12-14T09:05:48;5.68;97.47
71117;SHT31;58775;46.992;9.518;2023-12-14T09:07:49;5.71;97.57
71117;SHT31;58775;46.992;9.518;2023-12-14T09:09:53;5.77;97.38
71117;SHT31;58775;46.992;9.518;2023-12-14T09:11:54;5.88;97.25
71117;SHT31;58775;46.992;9.518;2023-12-14T09:13:55;5.95;97.50
71117;SHT31;58775;46.992;9.518;2023-12-14T09:15:56;5.90;97.10
71117;SHT31;58775;46.992;9.518;2023-12-14T09:17:56;5.95;97.34
71117;SHT31;58775;46.992;9.518;2023-12-14T09:19:57;6.16;97.26
71117;SHT31;58775;46.992;9.518;2023-12-14T09:21:58;6.33;96.84
71117;SHT31;58775;46.992;9.518;2023-12-14T09:23:59;6.37;96.83
71117;SHT31;58775;46.992;9.518;2023-12-14T09:26:00;6.42;96.52
71117;SHT31;58775;46.992;9.518;2023-12-14T09:28:01;6.50;96.31
71117;SHT31;58775;46.992;9.518;2023-12-14T09:30:02;6.37;96.41
71117;SHT31;58775;46.992;9.518;2023-12-14T09:32:03;6.32;96.31
71117;SHT31;58775;46.992;9.518;2023-12-14T09:34:05;6.22;96.62
71117;SHT31;58775;46.992;9.518;2023-12-14T09:36:06;6.25;97.65
71117;SHT31;58775;46.992;9.518;2023-12-14T09:38:07;6.28;96.29
71117;SHT31;58775;46.992;9.518;2023-12-14T09:40:08;6.28;97.63
71117;SHT31;58775;46.992;9.518;2023-12-14T09:42:09;6.46;95.93
71117;SHT31;58775;46.992;9.518;2023-12-14T09:44:10;6.60;95.77
71117;SHT31;58775;46.992;9.518;2023-12-14T09:46:11;6.57;95.41
71117;SHT31;58775;46.992;9.518;2023-12-14T09:48:15;6.40;95.59
71117;SHT31;58775;46.992;9.518;2023-12-14T09:50:16;6.22;97.76
71117;SHT31;58775;46.992;9.518;2023-12-14T09:52:17;5.94;97.82
71117;SHT31;58775;46.992;9.518;2023-12-14T09:54:18;6.08;98.12
71117;SHT31;58775;46.992;9.518;2023-12-14T09:56:19;6.29;97.45
71117;SHT31;58775;46.992;9.518;2023-12-14T09:58:19;6.45;96.39
71117;SHT31;58775;46.992;9.518;2023-12-14T10:00:37;6.54;95.72
71117;SHT31;58775;46.992;9.518;2023-12-14T10:02:41;6.49;96.82
71117;SHT31;58775;46.992;9.518;2023-12-14T10:04:43;6.37;97.39
71117;SHT31;58775;46.992;9.518;2023-12-14T10:06:46;6.30;98.47
71117;SHT31;58775;46.992;9.518;2023-12-14T10:08:54;6.24;98.03
71117;SHT31;58775;46.992;9.518;2023-12-14T10:10:56;6.42;97.36
71117;SHT31;58775;46.992;9.518;2023-12-14T10:12:57;6.57;95.90
71117;SHT31;58775;46.992;9.518;2023-12-14T10:15:01;6.47;96.27
71117;SHT31;58775;46.992;9.518;2023-12-14T10:17:17;6.57;95.81
71117;SHT31;58775;46.992;9.518;2023-12-14T10:19:19;6.33;96.60
71117;SHT31;58775;46.992;9.518;2023-12-14T10:21:19;6.19;97.96
71117;SHT31;58775;46.992;9.518;2023-12-14T10:23:21;6.29;96.31
71117;SHT31;58775;46.992;9.518;2023-12-14T10:25:22;6.29;96.32
71117;SHT31;58775;46.992;9.518;2023-12-14T10:27:23;6.30;95.98
71117;SHT31;58775;46.992;9.518;2023-12-14T10:29:24;6.33;97.09
71117;SHT31;58775;46.992;9.518;2023-12-14T10:31:25;6.50;96.06
71117;SHT31;58775;46.992;9.518;2023-12-14T10:33:26;6.50;95.16
71117;SHT31;58775;46.992;9.518;2023-12-14T10:35:27;6.40;95.88
71117;SHT31;58775;46.992;9.518;2023-12-14T10:37:29;6.50;96.40
71117;SHT31;58775;46.992;9.518;2023-12-14T10:39:32;6.63;95.96
71117;SHT31;58775;46.992;9.518;2023-12-14T10:41:34;6.54;96.14
71117;SHT31;58775;46.992;9.518;2023-12-14T10:43:36;6.60;95.88
71117;SHT31;58775;46.992;9.518;2023-12-14T10:45:38;6.46;96.69
71117;SHT31;58775;46.992;9.518;2023-12-14T10:47:43;6.40;96.86
71117;SHT31;58775;46.992;9.518;2023-12-14T10:49:48;6.49;96.44
71117;SHT31;58775;46.992;9.518;2023-12-14T10:51:55;6.46;97.14
71117;SHT31;58775;46.992;9.518;2023-12-14T10:53:57;6.50;96.19
71117;SHT31;58775;46.992;9.518;2023-12-14T10:55:59;6.40;94.83
71117;SHT31;58775;46.992;9.518;2023-12-14T10:58:03;6.11;96.76
71117;SHT31;58775;46.992;9.518;2023-12-14T11:00:04;6.29;95.99
71117;SHT31;58775;46.992;9.518;2023-12-14T11:02:09;6.09;98.24
71117;SHT31;58775;46.992;9.518;2023-12-14T11:04:11;6.08;97.50
71117;SHT31;58775;46.992;9.518;2023-12-14T11:06:30;6.15;96.92
71117;SHT31;58775;46.992;9.518;2023-12-14T11:08:34;6.30;96.53
71117;SHT31;58775;46.992;9.518;2023-12-14T11:13:01;5.99;95.86
71117;SHT31;58775;46.992;9.518;2023-12-14T11:15:04;6.04;96.49
71117;SHT31;58775;46.992;9.518;2023-12-14T11:17:06;6.30;96.21
71117;SHT31;58775;46.992;9.518;2023-12-14T11:21:26;6.66;96.26
71117;SHT31;58775;46.992;9.518;2023-12-14T11:23:29;6.79;96.09
71117;SHT31;58775;46.992;9.518;2023-12-14T11:25:31;6.90;95.92
71117;SHT31;58775;46.992;9.518;2023-12-14T11:27:32;6.94;95.41
71117;SHT31;58775;46.992;9.518;2023-12-14T11:29:36;6.96;95.51
71117;SHT31;58775;46.992;9.518;2023-12-14T11:31:37;6.87;95.53
71117;SHT31;58775;46.992;9.518;2023-12-14T11:33:40;6.90;96.05
71117;SHT31;58775;46.992;9.518;2023-12-14T11:35:42;6.93;95.25
71117;SHT31;58775;46.992;9.518;2023-12-14T11:37:42;7.01;95.94
71117;SHT31;58775;46.992;9.518;2023-12-14T11:39:43;7.11;95.47
71117;SHT31;58775;46.992;9.518;2023-12-14T11:42:01;7.18;95.46
71117;SHT31;58775;46.992;9.518;2023-12-14T11:44:02;7.07;94.75
71117;SHT31;58775;46.992;9.518;2023-12-14T11:46:03;7.04;95.75
71117;SHT31;58775;46.992;9.518;2023-12-14T11:48:09;7.19;94.87
71117;SHT31;58775;46.992;9.518;2023-12-14T11:50:11;7.27;95.39
71117;SHT31;58775;46.992;9.518;2023-12-14T11:52:12;7.41;95.01
71117;SHT31;58775;46.992;9.518;2023-12-14T11:54:13;7.55;94.23
71117;SHT31;58775;46.992;9.518;2023-12-14T11:56:16;7.47;91.52
71117;SHT31;58775;46.992;9.518;2023-12-14T11:58:17;7.18;92.21
71117;SHT31;58775;46.992;9.518;2023-12-14T12:00:23;7.15;94.36
71117;SHT31;58775;46.992;9.518;2023-12-14T12:02:25;7.03;91.91
71117;SHT31;58775;46.992;9.518;2023-12-14T12:04:27;7.15;91.62
71117;SHT31;58775;46.992;9.518;2023-12-14T12:06:28;7.12;93.08
71117;SHT31;58775;46.992;9.518;2023-12-14T12:08:28;7.28;92.83
71117;SHT31;58775;46.992;9.518;2023-12-14T12:10:29;7.41;93.03
71117;SHT31;58775;46.992;9.518;2023-12-14T12:12:33;7.35;92.53
71117;SHT31;58775;46.992;9.518;2023-12-14T12:14:35;7.48;92.34
71117;SHT31;58775;46.992;9.518;2023-12-14T12:16:36;7.19;90.95
71117;SHT31;58775;46.992;9.518;2023-12-14T12:18:37;7.10;91.54
71117;SHT31;58775;46.992;9.518;2023-12-14T12:20:38;7.10;89.25
71117;SHT31;58775;46.992;9.518;2023-12-14T12:22:39;7.27;90.96
71117;SHT31;58775;46.992;9.518;2023-12-14T12:24:39;7.25;90.09
71117;SHT31;58775;46.992;9.518;2023-12-14T12:26:40;7.22;90.00
71117;SHT31;58775;46.992;9.518;2023-12-14T12:28:41;7.34;90.43
71117;SHT31;58775;46.992;9.518;2023-12-14T12:30:42;7.35;89.56
71117;SHT31;58775;46.992;9.518;2023-12-14T12:32:43;7.21;89.20
71117;SHT31;58775;46.992;9.518;2023-12-14T12:34:44;7.07;88.39
71117;SHT31;58775;46.992;9.518;2023-12-14T12:36:45;7.10;88.43
71117;SHT31;58775;46.992;9.518;2023-12-14T12:38:45;7.03;90.51
71117;SHT31;58775;46.992;9.518;2023-12-14T12:40:46;7.12;89.00
71117;SHT31;58775;46.992;9.518;2023-12-14T12:42:48;7.11;88.97
71117;SHT31;58775;46.992;9.518;2023-12-14T12:44:49;7.07;89.17
71117;SHT31;58775;46.992;9.518;2023-12-14T12:46:50;7.03;88.42
71117;SHT31;58775;46.992;9.518;2023-12-14T12:48:52;7.10;88.18
71117;SHT31;58775;46.992;9.518;2023-12-14T12:50:53;7.01;90.13
71117;SHT31;58775;46.992;9.518;2023-12-14T12:52:54;7.03;88.54
71117;SHT31;58775;46.992;9.518;2023-12-14T12:54:54;7.11;88.47
71117;SHT31;58775;46.992;9.518;2023-12-14T12:56:55;6.88;89.18
71117;SHT31;58775;46.992;9.518;2023-12-14T12:58:56;6.94;89.01
71117;SHT31;58775;46.992;9.518;2023-12-14T13:00:57;6.90;88.83
71117;SHT31;58775;46.992;9.518;2023-12-14T13:02:58;6.91;89.08